createdAt,value
2023-05-28T00:01:07.432Z,7.15
2023-05-28T00:03:53.220Z,6.95
2023-05-28T00:06:39.046Z,7.10
2023-05-28T00:09:24.592Z,6.18
2023-05-28T00:12:10.145Z,6.32
2023-05-28T00:14:55.525Z,6.85
2023-05-28T00:17:41.061Z,6.68
2023-05-28T00:20:26.941Z,7.03
2023-05-28T00:23:12.448Z,6.50
2023-05-28T00:25:57.710Z,6.97
2023-05-28T00:28:43.187Z,6.70
2023-05-28T00:31:28.953Z,6.82
2023-05-28T00:34:14.359Z,6.80
2023-05-28T00:36:59.992Z,6.85
2023-05-28T00:39:45.591Z,6.07
2023-05-28T00:42:31.494Z,6.95
2023-05-28T00:45:17.119Z,6.57
2023-05-28T00:48:02.533Z,7.70
2023-05-28T00:50:48.946Z,6.50
2023-05-28T00:53:34.747Z,7.00
2023-05-28T00:56:20.004Z,7.30
2023-05-28T00:59:05.705Z,6.65
2023-05-28T01:01:51.230Z,5.97
2023-05-28T01:04:37.127Z,6.88
2023-05-28T01:07:23.052Z,6.55
2023-05-28T01:10:08.671Z,6.72
2023-05-28T01:12:55.230Z,6.45
2023-05-28T01:15:41.427Z,6.75
2023-05-28T01:18:29.074Z,6.28
2023-05-28T01:21:15.701Z,6.50
2023-05-28T01:24:02.360Z,6.60
2023-05-28T01:26:48.021Z,6.60
2023-05-28T01:29:33.845Z,6.72
2023-05-28T01:32:19.145Z,6.43
2023-05-28T01:35:06.487Z,6.82
2023-05-28T01:37:54.824Z,7.05
2023-05-28T01:40:44.662Z,6.63
2023-05-28T01:43:30.108Z,6.53
2023-05-28T01:46:16.305Z,6.68
2023-05-28T01:49:02.337Z,6.18
2023-05-28T01:51:47.752Z,6.95
2023-05-28T01:54:33.534Z,6.75
2023-05-28T01:57:19.049Z,7.00
2023-05-28T02:00:05.341Z,6.70
2023-05-28T02:02:50.738Z,6.28
2023-05-28T02:05:36.312Z,6.20
2023-05-28T02:08:21.642Z,7.53
2023-05-28T02:11:07.214Z,7.03
2023-05-28T02:13:53.286Z,6.32
2023-05-28T02:16:39.198Z,7.20
2023-05-28T02:19:25.774Z,6.95
2023-05-28T02:22:12.957Z,6.55
2023-05-28T02:24:58.534Z,6.55
2023-05-28T02:27:44.341Z,7.38
2023-05-28T02:30:29.585Z,6.90
2023-05-28T02:33:15.158Z,6.10
2023-05-28T02:36:00.752Z,7.18
2023-05-28T02:38:46.175Z,7.80
2023-05-28T02:41:31.328Z,7.15
2023-05-28T02:44:16.629Z,7.40
2023-05-28T02:47:01.744Z,7.40
2023-05-28T02:49:47.704Z,8.18
2023-05-28T02:52:33.327Z,7.15
2023-05-28T02:55:18.791Z,7.15
2023-05-28T02:58:04.434Z,7.38
2023-05-28T03:00:49.999Z,7.00
2023-05-28T03:03:35.851Z,6.97
2023-05-28T03:06:21.412Z,7.38
2023-05-28T03:09:07.535Z,6.72
2023-05-28T03:11:52.974Z,6.65
2023-05-28T03:14:38.478Z,6.68
2023-05-28T03:17:23.725Z,6.93
2023-05-28T03:20:11.803Z,6.80
2023-05-28T03:22:58.226Z,7.10
2023-05-28T03:25:43.482Z,6.75
2023-05-28T03:28:30.297Z,7.00
2023-05-28T03:31:15.912Z,7.40
2023-05-28T03:34:01.876Z,6.60
2023-05-28T03:36:47.627Z,6.75
2023-05-28T03:39:33.180Z,6.97
2023-05-28T03:42:19.027Z,7.90
2023-05-28T03:45:05.454Z,7.85
2023-05-28T03:47:50.762Z,7.10
2023-05-28T03:50:37.598Z,7.40
2023-05-28T03:53:23.100Z,7.00
2023-05-28T03:56:08.807Z,7.03
2023-05-28T03:58:54.148Z,7.15
2023-05-28T04:01:39.826Z,6.78
2023-05-28T04:04:25.314Z,6.30
2023-05-28T04:07:10.625Z,7.30
2023-05-28T04:09:56.126Z,6.68
2023-05-28T04:12:41.385Z,6.55
2023-05-28T04:15:26.998Z,7.40
2023-05-28T04:18:12.399Z,6.70
2023-05-28T04:20:57.967Z,7.15
2023-05-28T04:23:43.519Z,6.72
2023-05-28T04:26:29.107Z,6.90
2023-05-28T04:29:16.651Z,6.88
2023-05-28T04:32:02.113Z,6.45
2023-05-28T04:34:48.301Z,8.32
2023-05-28T04:37:34.391Z,8.07
2023-05-28T04:40:19.873Z,8.55
2023-05-28T04:43:05.405Z,7.38
2023-05-28T04:45:54.753Z,7.45
2023-05-28T04:48:40.520Z,6.60
2023-05-28T04:51:26.432Z,7.40
2023-05-28T04:54:11.969Z,7.07
2023-05-28T04:56:57.516Z,6.78
2023-05-28T04:59:43.823Z,7.43
2023-05-28T05:02:30.065Z,7.22
2023-05-28T05:05:15.606Z,7.13
2023-05-28T05:08:01.251Z,6.90
2023-05-28T05:10:46.791Z,6.78
2023-05-28T05:13:32.657Z,6.43
2023-05-28T05:16:20.817Z,6.80
2023-05-28T05:19:06.102Z,7.20
2023-05-28T05:21:52.290Z,6.78
2023-05-28T05:24:37.628Z,7.07
2023-05-28T05:27:23.260Z,6.80
2023-05-28T05:30:09.307Z,7.22
2023-05-28T05:32:54.619Z,7.13
2023-05-28T05:35:40.178Z,7.10
2023-05-28T05:38:25.775Z,7.50
2023-05-28T05:41:11.837Z,7.30
2023-05-28T05:43:57.369Z,7.25
2023-05-28T05:46:42.982Z,6.70
2023-05-28T05:49:28.286Z,6.90
2023-05-28T05:52:13.948Z,7.60
2023-05-28T05:54:59.226Z,7.25
2023-05-28T05:57:44.985Z,7.70
2023-05-28T06:00:30.424Z,7.22
2023-05-28T06:03:16.469Z,7.15
2023-05-28T06:06:02.219Z,7.47
2023-05-28T06:08:47.758Z,7.47
2023-05-28T06:11:33.144Z,7.00
2023-05-28T06:14:18.486Z,7.13
2023-05-28T06:17:04.125Z,7.38
2023-05-28T06:19:50.942Z,7.97
2023-05-28T06:22:37.147Z,7.80
2023-05-28T06:25:23.475Z,7.68
2023-05-28T06:28:08.967Z,7.45
2023-05-28T06:30:54.743Z,7.60
2023-05-28T06:33:40.468Z,7.65
2023-05-28T06:36:25.651Z,7.32
2023-05-28T06:39:11.906Z,7.85
2023-05-28T06:41:57.599Z,7.32
2023-05-28T06:44:43.052Z,7.38
2023-05-28T06:47:29.257Z,7.70
2023-05-28T06:50:15.154Z,7.60
2023-05-28T06:53:01.881Z,7.53
2023-05-28T06:55:47.518Z,8.05
2023-05-28T06:58:32.697Z,7.22
2023-05-28T07:01:18.605Z,6.72
2023-05-28T07:04:04.475Z,6.78
2023-05-28T07:06:50.198Z,7.25
2023-05-28T07:09:35.589Z,7.15
2023-05-28T07:12:21.132Z,7.00
2023-05-28T07:15:07.557Z,7.47
2023-05-28T07:17:52.914Z,6.93
2023-05-28T07:20:38.398Z,7.20
2023-05-28T07:23:23.945Z,7.05
2023-05-28T07:26:09.479Z,6.95
2023-05-28T07:28:55.211Z,7.53
2023-05-28T07:31:41.091Z,7.10
2023-05-28T07:34:26.857Z,8.57
2023-05-28T07:37:12.261Z,8.20
2023-05-28T07:39:57.832Z,7.20
2023-05-28T07:42:44.448Z,6.93
2023-05-28T07:45:29.772Z,7.38
2023-05-28T07:48:15.383Z,7.18
2023-05-28T07:51:00.646Z,7.20
2023-05-28T07:53:46.762Z,7.47
2023-05-28T07:56:32.161Z,7.13
2023-05-28T07:59:19.218Z,7.45
2023-05-28T08:02:04.963Z,7.20
2023-05-28T08:04:50.824Z,6.97
2023-05-28T08:07:36.840Z,7.13
2023-05-28T08:10:22.475Z,6.53
2023-05-28T08:13:08.192Z,8.13
2023-05-28T08:15:53.868Z,6.80
2023-05-28T08:18:40.321Z,7.40
2023-05-28T08:21:26.482Z,7.40
2023-05-28T08:24:12.065Z,6.82
2023-05-28T08:26:57.729Z,6.80
2023-05-28T08:29:43.411Z,7.32
2023-05-28T08:32:28.741Z,6.63
2023-05-28T08:35:14.635Z,6.10
2023-05-28T08:37:59.927Z,6.45
2023-05-28T08:40:54.545Z,6.70
2023-05-28T08:43:39.800Z,6.60
2023-05-28T08:46:27.150Z,5.97
2023-05-28T08:49:15.409Z,6.47
2023-05-28T08:52:03.496Z,6.13
2023-05-28T08:54:49.480Z,6.20
2023-05-28T08:57:35.739Z,6.10
2023-05-28T09:00:22.764Z,6.10
2023-05-28T09:03:09.557Z,6.55
2023-05-28T09:05:55.331Z,5.93
2023-05-28T09:08:42.699Z,6.53
2023-05-28T09:11:28.210Z,6.55
2023-05-28T09:14:16.377Z,5.90
2023-05-28T09:17:01.666Z,6.28
2023-05-28T09:19:53.427Z,5.72
2023-05-28T09:22:39.347Z,5.82
2023-05-28T09:25:25.451Z,5.47
2023-05-28T09:28:13.559Z,6.05
2023-05-28T09:31:06.959Z,5.53
2023-05-28T09:33:52.654Z,5.93
2023-05-28T09:36:38.840Z,5.85
2023-05-28T09:39:27.381Z,5.20
2023-05-28T09:42:14.427Z,7.00
2023-05-28T09:45:01.766Z,5.80
2023-05-28T09:47:47.824Z,5.10
2023-05-28T09:50:33.725Z,5.93
2023-05-28T09:53:20.580Z,5.72
2023-05-28T09:56:06.684Z,5.82
2023-05-28T09:58:56.161Z,5.25
2023-05-28T10:01:57.411Z,5.22
2023-05-28T10:04:45.717Z,5.55
2023-05-28T10:07:31.510Z,5.47
2023-05-28T10:10:17.683Z,5.55
2023-05-28T10:13:03.950Z,5.22
2023-05-28T10:15:50.098Z,4.95
2023-05-28T10:18:37.860Z,5.00
2023-05-28T10:21:26.085Z,5.20
2023-05-28T10:24:13.620Z,5.05
2023-05-28T10:26:59.334Z,5.38
2023-05-28T10:29:46.953Z,4.75
2023-05-28T10:32:42.600Z,4.90
2023-05-28T10:35:28.288Z,5.35
2023-05-28T10:38:14.124Z,4.88
2023-05-28T10:41:06.351Z,5.50
2023-05-28T10:43:52.911Z,4.90
2023-05-28T10:46:39.958Z,4.45
2023-05-28T10:49:27.174Z,5.10
2023-05-28T10:52:22.378Z,5.18
2023-05-28T10:55:13.258Z,5.00
2023-05-28T10:58:08.777Z,4.90
2023-05-28T11:01:02.251Z,4.63
2023-05-28T11:03:56.159Z,5.10
2023-05-28T11:06:43.085Z,4.78
2023-05-28T11:09:28.804Z,4.55
2023-05-28T11:12:14.172Z,5.05
2023-05-28T11:14:59.824Z,5.90
2023-05-28T11:17:47.193Z,4.95
2023-05-28T11:20:32.912Z,4.88
2023-05-28T11:23:19.443Z,4.65
2023-05-28T11:26:21.985Z,5.20
2023-05-28T11:29:08.701Z,4.57
2023-05-28T11:31:56.619Z,4.82
2023-05-28T11:34:42.481Z,4.60
2023-05-28T11:37:33.371Z,4.97
2023-05-28T11:40:19.663Z,4.90
2023-05-28T11:43:05.765Z,4.45
2023-05-28T11:45:54.691Z,4.82
2023-05-28T11:48:40.296Z,4.70
2023-05-28T11:51:28.400Z,4.32
2023-05-28T11:54:14.723Z,4.82
2023-05-28T11:57:04.194Z,4.72
2023-05-28T12:00:20.949Z,4.68
2023-05-28T12:03:06.448Z,4.57
2023-05-28T12:05:52.240Z,4.00
2023-05-28T12:08:40.781Z,4.57
2023-05-28T12:11:27.352Z,4.78
2023-05-28T12:14:13.448Z,5.15
2023-05-28T12:17:09.884Z,4.68
2023-05-28T12:19:55.474Z,4.18
2023-05-28T12:22:40.889Z,5.00
2023-05-28T12:25:26.245Z,4.85
2023-05-28T12:28:12.700Z,4.18
2023-05-28T12:30:58.664Z,4.05
2023-05-28T12:33:44.573Z,4.43
2023-05-28T12:36:29.682Z,4.90
2023-05-28T12:39:15.746Z,4.32
2023-05-28T12:42:02.127Z,4.65
2023-05-28T12:44:47.849Z,4.30
2023-05-28T12:47:33.742Z,4.55
2023-05-28T12:50:21.153Z,4.00
2023-05-28T12:53:07.165Z,4.20
2023-05-28T12:55:52.834Z,4.18
2023-05-28T12:58:38.283Z,4.30
2023-05-28T13:01:24.528Z,4.03
2023-05-28T13:04:09.953Z,4.10
2023-05-28T13:06:55.396Z,4.20
2023-05-28T13:09:41.030Z,4.45
2023-05-28T13:12:26.640Z,4.07
2023-05-28T13:15:12.345Z,4.30
2023-05-28T13:17:58.650Z,4.32
2023-05-28T13:20:44.620Z,4.07
2023-05-28T13:23:30.524Z,4.22
2023-05-28T13:26:16.398Z,4.18
2023-05-28T13:29:04.785Z,3.90
2023-05-28T13:31:50.830Z,4.00
2023-05-28T13:34:36.664Z,4.03
2023-05-28T13:37:22.101Z,4.18
2023-05-28T13:40:14.453Z,4.10
2023-05-28T13:43:00.268Z,4.50
2023-05-28T13:45:45.531Z,4.20
2023-05-28T13:48:32.880Z,4.32
2023-05-28T13:51:19.083Z,3.83
2023-05-28T13:54:04.412Z,4.18
2023-05-28T13:56:49.867Z,4.78
2023-05-28T13:59:35.331Z,4.35
2023-05-28T14:02:20.985Z,4.00
2023-05-28T14:05:07.146Z,4.22
2023-05-28T14:07:52.395Z,4.22
2023-05-28T14:10:38.069Z,4.30
2023-05-28T14:13:23.558Z,4.40
2023-05-28T14:16:09.112Z,4.20
2023-05-28T14:18:54.615Z,4.22
2023-05-28T14:21:41.271Z,3.83
2023-05-28T14:24:26.863Z,4.20
2023-05-28T14:27:12.348Z,3.88
2023-05-28T14:29:57.924Z,3.90
2023-05-28T14:32:43.434Z,3.90
2023-05-28T14:35:28.961Z,3.97
2023-05-28T14:38:14.537Z,3.90
2023-05-28T14:40:59.941Z,4.05
2023-05-28T14:43:46.435Z,4.47
2023-05-28T14:46:31.927Z,4.65
2023-05-28T14:49:17.519Z,4.13
2023-05-28T14:52:26.191Z,3.70
2023-05-28T14:55:11.663Z,4.18
2023-05-28T14:57:56.990Z,4.63
2023-05-28T15:00:42.598Z,4.00
2023-05-28T15:03:28.288Z,4.55
2023-05-28T15:06:13.810Z,4.00
2023-05-28T15:08:59.957Z,4.07
2023-05-28T15:11:45.547Z,4.53
2023-05-28T15:14:33.749Z,4.35
2023-05-28T15:17:22.030Z,4.00
2023-05-28T15:20:08.571Z,4.20
2023-05-28T15:22:54.050Z,4.18
2023-05-28T15:25:39.988Z,4.30
2023-05-28T15:28:25.623Z,4.20
2023-05-28T15:31:11.177Z,4.20
2023-05-28T15:33:56.518Z,3.80
2023-05-28T15:36:42.238Z,4.28
2023-05-28T15:39:28.022Z,4.05
2023-05-28T15:42:13.517Z,4.43
2023-05-28T15:44:58.923Z,4.20
2023-05-28T15:47:44.251Z,4.05
2023-05-28T15:50:29.700Z,4.28
2023-05-28T15:53:14.961Z,4.20
2023-05-28T15:56:00.789Z,3.92
2023-05-28T15:58:46.176Z,4.22
2023-05-28T16:01:32.376Z,4.95
2023-05-28T16:04:20.071Z,4.25
2023-05-28T16:07:05.791Z,4.35
2023-05-28T16:09:51.151Z,3.85
2023-05-28T16:12:39.412Z,4.20
2023-05-28T16:15:25.633Z,4.18
2023-05-28T16:18:11.356Z,4.20
2023-05-28T16:20:57.275Z,3.83
2023-05-28T16:23:42.603Z,4.25
2023-05-28T16:26:29.332Z,4.13
2023-05-28T16:29:15.023Z,3.97
2023-05-28T16:32:01.907Z,4.00
2023-05-28T16:34:47.383Z,3.40
2023-05-28T16:37:33.066Z,3.65
2023-05-28T16:40:18.617Z,3.92
2023-05-28T16:43:04.209Z,3.53
2023-05-28T16:45:49.712Z,3.45
2023-05-28T16:48:37.447Z,3.45
2023-05-28T16:51:24.100Z,3.35
2023-05-28T16:54:09.806Z,3.90
2023-05-28T16:56:55.602Z,3.45
2023-05-28T16:59:40.993Z,4.03
2023-05-28T17:02:27.840Z,3.60
2023-05-28T17:05:13.732Z,3.47
2023-05-28T17:07:59.048Z,3.55
2023-05-28T17:10:44.522Z,3.88
2023-05-28T17:13:29.848Z,3.40
2023-05-28T17:16:15.524Z,3.85
2023-05-28T17:19:01.239Z,3.88
2023-05-28T17:21:47.022Z,3.63
2023-05-28T17:24:32.357Z,4.40
2023-05-28T17:27:17.958Z,3.67
2023-05-28T17:30:03.723Z,3.95
2023-05-28T17:32:49.109Z,3.67
2023-05-28T17:35:34.723Z,3.85
2023-05-28T17:38:20.485Z,3.58
2023-05-28T17:41:06.099Z,3.97
2023-05-28T17:43:51.651Z,3.80
2023-05-28T17:46:39.865Z,3.85
2023-05-28T17:49:25.904Z,3.97
2023-05-28T17:52:11.243Z,4.00
2023-05-28T17:54:57.486Z,3.63
2023-05-28T17:57:42.729Z,4.63
2023-05-28T18:00:28.263Z,4.50
2023-05-28T18:03:14.094Z,4.03
2023-05-28T18:05:59.321Z,3.92
2023-05-28T18:08:44.937Z,4.25
2023-05-28T18:11:30.494Z,4.22
2023-05-28T18:14:16.352Z,3.95
2023-05-28T18:17:02.561Z,4.18
2023-05-28T18:19:47.960Z,4.35
2023-05-28T18:22:33.849Z,4.18
2023-05-28T18:25:19.328Z,4.88
2023-05-28T18:28:09.985Z,4.20
2023-05-28T18:30:56.767Z,4.70
2023-05-28T18:33:42.581Z,5.28
2023-05-28T18:36:29.947Z,4.57
2023-05-28T18:39:15.212Z,3.83
2023-05-28T18:42:02.471Z,3.75
2023-05-28T18:44:47.746Z,3.92
2023-05-28T18:47:33.520Z,4.00
2023-05-28T18:50:18.968Z,3.80
2023-05-28T18:53:04.125Z,4.05
2023-05-28T18:55:51.266Z,3.80
2023-05-28T18:58:36.664Z,4.00
2023-05-28T19:01:22.207Z,3.20
2023-05-28T19:04:07.618Z,3.53
2023-05-28T19:06:53.079Z,3.65
2023-05-28T19:09:38.687Z,4.30
2023-05-28T19:12:24.027Z,3.95
2023-05-28T19:15:10.054Z,3.58
2023-05-28T19:17:55.675Z,4.05
2023-05-28T19:20:41.377Z,3.65
2023-05-28T19:23:26.996Z,3.80
2023-05-28T19:26:12.438Z,3.72
2023-05-28T19:28:57.712Z,3.58
2023-05-28T19:31:43.359Z,3.70
2023-05-28T19:34:33.036Z,4.07
2023-05-28T19:37:18.897Z,3.75
2023-05-28T19:40:06.350Z,4.35
2023-05-28T19:42:51.701Z,3.60
2023-05-28T19:45:37.312Z,3.80
2023-05-28T19:48:22.880Z,4.47
2023-05-28T19:51:08.390Z,3.95
2023-05-28T19:53:53.845Z,3.78
2023-05-28T19:56:39.220Z,3.97
2023-05-28T19:59:24.608Z,3.90
2023-05-28T20:02:10.304Z,3.50
2023-05-28T20:04:59.506Z,3.72
2023-05-28T20:07:45.332Z,3.90
2023-05-28T20:10:30.602Z,3.80
2023-05-28T20:13:16.125Z,3.63
2023-05-28T20:16:01.460Z,3.63
2023-05-28T20:18:47.011Z,3.83
2023-05-28T20:21:33.087Z,3.90
2023-05-28T20:24:18.736Z,3.33
2023-05-28T20:27:04.051Z,3.40
2023-05-28T20:29:49.331Z,3.20
2023-05-28T20:32:35.224Z,3.40
2023-05-28T20:35:20.851Z,3.42
2023-05-28T20:38:06.506Z,3.85
2023-05-28T20:40:55.192Z,3.47
2023-05-28T20:43:41.160Z,3.40
2023-05-28T20:46:26.439Z,4.32
2023-05-28T20:49:15.271Z,3.88
2023-05-28T20:52:00.868Z,3.75
2023-05-28T20:54:47.533Z,3.53
2023-05-28T20:57:49.126Z,3.38
2023-05-28T21:00:35.391Z,3.75
2023-05-28T21:03:22.021Z,4.03
2023-05-28T21:06:08.529Z,3.72
2023-05-28T21:08:53.925Z,3.75
2023-05-28T21:11:39.469Z,3.72
2023-05-28T21:14:25.090Z,3.47
2023-05-28T21:17:10.885Z,3.75
2023-05-28T21:19:56.730Z,3.50
2023-05-28T21:22:42.420Z,3.63
2023-05-28T21:25:27.589Z,4.30
2023-05-28T21:28:13.323Z,3.83
2023-05-28T21:31:02.058Z,3.78
2023-05-28T21:33:47.627Z,3.63
2023-05-28T21:36:33.734Z,3.47
2023-05-28T21:39:19.917Z,3.58
2023-05-28T21:42:06.704Z,3.58
2023-05-28T21:44:52.203Z,3.78
2023-05-28T21:47:37.971Z,4.40
2023-05-28T21:50:25.745Z,3.83
2023-05-28T21:53:14.294Z,4.07
2023-05-28T21:55:59.512Z,3.83
2023-05-28T21:58:45.060Z,4.00
2023-05-28T22:01:30.679Z,4.40
2023-05-28T22:04:16.423Z,4.00
2023-05-28T22:07:01.827Z,4.35
2023-05-28T22:09:47.639Z,4.00
2023-05-28T22:12:32.892Z,4.18
2023-05-28T22:15:18.658Z,4.10
2023-05-28T22:18:04.205Z,3.88
2023-05-28T22:20:51.068Z,3.40
2023-05-28T22:23:36.738Z,3.85
2023-05-28T22:26:23.286Z,4.10
2023-05-28T22:29:09.116Z,3.55
2023-05-28T22:31:54.918Z,3.83
2023-05-28T22:34:40.424Z,4.32
2023-05-28T22:37:27.492Z,3.88
2023-05-28T22:40:12.816Z,3.80
2023-05-28T22:42:59.103Z,4.03
2023-05-28T22:45:44.426Z,4.15
2023-05-28T22:48:29.880Z,4.55
2023-05-28T22:51:15.660Z,4.03
2023-05-28T22:54:01.239Z,3.70
2023-05-28T22:56:46.879Z,3.80
2023-05-28T22:59:32.180Z,4.32
2023-05-28T23:02:17.797Z,3.85
2023-05-28T23:05:03.864Z,4.30
2023-05-28T23:07:49.311Z,4.95
2023-05-28T23:10:34.795Z,4.20
2023-05-28T23:13:21.207Z,3.85
2023-05-28T23:16:06.627Z,4.50
2023-05-28T23:18:53.141Z,4.22
2023-05-28T23:21:39.722Z,4.75
2023-05-28T23:24:24.964Z,4.30
2023-05-28T23:27:10.665Z,3.83
2023-05-28T23:29:56.565Z,4.15
2023-05-28T23:32:42.167Z,4.15
2023-05-28T23:35:27.758Z,4.50
2023-05-28T23:38:13.489Z,5.60
2023-05-28T23:40:58.975Z,4.07
2023-05-28T23:43:44.762Z,4.07
2023-05-28T23:46:34.200Z,4.35
2023-05-28T23:49:19.753Z,4.45
2023-05-28T23:52:05.401Z,4.45
2023-05-28T23:54:51.026Z,4.60
2023-05-28T23:57:36.697Z,4.18
